createdAt,value
2022-08-26T00:00:37.300Z,0.00
2022-08-26T00:01:35.697Z,0.00
2022-08-26T00:02:40.247Z,0.00
2022-08-26T00:03:36.334Z,0.00
2022-08-26T00:04:36.636Z,0.00
2022-08-26T00:05:36.952Z,0.00
2022-08-26T00:06:37.261Z,0.00
2022-08-26T00:07:41.443Z,0.00
2022-08-26T00:08:37.884Z,0.00
2022-08-26T00:09:40.255Z,0.00
2022-08-26T00:10:38.472Z,0.00
2022-08-26T00:11:38.781Z,0.00
2022-08-26T00:12:40.305Z,0.00
2022-08-26T00:13:39.468Z,0.00
2022-08-26T00:14:39.776Z,0.00
2022-08-26T00:15:40.103Z,0.00
2022-08-26T00:16:41.054Z,0.00
2022-08-26T00:17:44.677Z,0.00
2022-08-26T00:18:40.994Z,0.00
2022-08-26T00:19:41.312Z,0.00
2022-08-26T00:20:43.495Z,0.00
2022-08-26T00:21:43.688Z,0.00
2022-08-26T00:22:43.176Z,0.00
2022-08-26T00:23:42.549Z,0.00
2022-08-26T00:24:42.856Z,0.00
2022-08-26T00:25:46.045Z,0.00
2022-08-26T00:26:45.245Z,0.00
2022-08-26T00:27:46.788Z,0.00
2022-08-26T00:28:43.994Z,0.00
2022-08-26T00:29:44.308Z,0.00
2022-08-26T00:30:44.647Z,0.00
2022-08-26T00:31:48.370Z,0.00
2022-08-26T00:32:49.010Z,0.00
2022-08-26T00:33:46.464Z,0.00
2022-08-26T00:34:46.888Z,0.00
2022-08-26T00:35:47.041Z,0.00
2022-08-26T00:36:47.462Z,0.00
2022-08-26T00:37:50.610Z,0.00
2022-08-26T00:38:48.837Z,0.00
2022-08-26T00:39:49.058Z,0.00
2022-08-26T00:40:48.352Z,0.00
2022-08-26T00:41:47.860Z,0.00
2022-08-26T00:42:49.652Z,0.00
2022-08-26T00:43:51.851Z,0.00
2022-08-26T00:44:48.732Z,0.00
2022-08-26T00:45:49.119Z,0.00
2022-08-26T00:46:49.317Z,0.00
2022-08-26T00:47:53.531Z,0.00
2022-08-26T00:48:51.789Z,0.00
2022-08-26T00:49:50.181Z,0.00
2022-08-26T00:50:50.485Z,0.00
2022-08-26T00:51:50.822Z,0.00
2022-08-26T00:52:53.120Z,0.00
2022-08-26T00:53:53.284Z,0.00
2022-08-26T00:54:54.101Z,0.00
2022-08-26T00:55:52.005Z,0.00
2022-08-26T00:56:52.340Z,0.00
2022-08-26T00:57:53.559Z,0.00
2022-08-26T00:58:53.759Z,0.00
2022-08-26T00:59:55.270Z,0.00
2022-08-26T01:00:55.492Z,0.00
2022-08-26T01:01:55.717Z,0.00
2022-08-26T01:02:55.822Z,0.00
2022-08-26T01:03:55.994Z,0.00
2022-08-26T01:04:56.335Z,0.00
2022-08-26T01:05:54.816Z,0.00
2022-08-26T01:06:55.127Z,0.00
2022-08-26T01:07:58.794Z,0.00
2022-08-26T01:08:57.486Z,0.00
2022-08-26T01:09:56.046Z,0.00
2022-08-26T01:10:56.236Z,0.00
2022-08-26T01:11:56.568Z,0.00
2022-08-26T01:12:58.742Z,0.00
2022-08-26T01:13:58.951Z,0.00
2022-08-26T01:14:59.130Z,0.00
2022-08-26T01:15:59.385Z,0.00
2022-08-26T01:16:59.997Z,0.00
2022-08-26T01:18:00.272Z,0.00
2022-08-26T01:18:58.597Z,0.00
2022-08-26T01:20:00.827Z,0.00
2022-08-26T01:20:59.179Z,0.00
2022-08-26T01:22:01.369Z,0.00
2022-08-26T01:23:01.531Z,0.00
2022-08-26T01:24:00.045Z,0.00
2022-08-26T01:25:00.347Z,0.00
2022-08-26T01:26:02.601Z,0.00
2022-08-26T01:27:01.015Z,0.00
2022-08-26T01:28:03.185Z,0.00
2022-08-26T01:29:01.572Z,0.00
2022-08-26T01:30:03.741Z,0.00
2022-08-26T01:31:02.381Z,0.00
2022-08-26T01:32:05.066Z,0.00
2022-08-26T01:33:04.540Z,0.00
2022-08-26T01:34:03.032Z,0.00
2022-08-26T01:35:03.345Z,0.00
2022-08-26T01:36:03.702Z,0.00
2022-08-26T01:37:03.892Z,0.00
2022-08-26T01:38:06.103Z,0.00
2022-08-26T01:39:05.903Z,0.00
2022-08-26T01:40:04.785Z,0.00
2022-08-26T01:41:11.622Z,0.00
2022-08-26T01:42:10.277Z,0.00
2022-08-26T01:43:07.692Z,0.00
2022-08-26T01:44:05.979Z,0.00
2022-08-26T01:45:06.234Z,0.00
2022-08-26T01:46:08.468Z,0.00
2022-08-26T01:47:07.617Z,0.00
2022-08-26T01:48:07.155Z,0.00
2022-08-26T01:49:07.780Z,0.00
2022-08-26T01:50:07.728Z,0.00
2022-08-26T01:51:08.016Z,0.00
2022-08-26T01:52:11.248Z,0.00
2022-08-26T01:53:10.736Z,0.00
2022-08-26T01:54:12.075Z,0.00
2022-08-26T01:55:09.167Z,0.00
2022-08-26T01:56:10.341Z,0.00
2022-08-26T01:57:11.230Z,0.00
2022-08-26T01:58:11.960Z,0.00
2022-08-26T01:59:10.751Z,0.00
2022-08-26T02:00:10.596Z,0.00
2022-08-26T02:01:10.989Z,0.00
2022-08-26T02:02:12.071Z,0.00
2022-08-26T02:03:13.464Z,0.00
2022-08-26T02:04:11.712Z,0.00
2022-08-26T02:05:12.046Z,0.00
2022-08-26T02:06:12.250Z,0.00
2022-08-26T02:07:13.381Z,0.00
2022-08-26T02:08:14.788Z,0.00
2022-08-26T02:09:15.955Z,0.00
2022-08-26T02:10:13.369Z,0.00
2022-08-26T02:11:15.547Z,0.00
2022-08-26T02:12:14.947Z,0.00
2022-08-26T02:13:14.322Z,0.00
2022-08-26T02:14:14.627Z,0.00
2022-08-26T02:15:16.806Z,0.00
2022-08-26T02:16:15.286Z,0.00
2022-08-26T02:17:16.523Z,0.00
2022-08-26T02:18:15.897Z,0.00
2022-08-26T02:19:17.056Z,0.00
2022-08-26T02:20:18.413Z,0.00
2022-08-26T02:21:16.796Z,0.00
2022-08-26T02:22:18.086Z,0.00
2022-08-26T02:23:17.463Z,0.00
2022-08-26T02:24:17.770Z,0.00
2022-08-26T02:25:19.961Z,0.00
2022-08-26T02:26:19.320Z,0.00
2022-08-26T02:27:22.237Z,0.00
2022-08-26T02:28:20.707Z,0.00
2022-08-26T02:29:19.968Z,0.00
2022-08-26T02:30:20.129Z,0.00
2022-08-26T02:31:21.609Z,0.00
2022-08-26T02:32:23.256Z,0.00
2022-08-26T02:33:21.137Z,0.00
2022-08-26T02:34:21.539Z,0.00
2022-08-26T02:35:22.725Z,0.00
2022-08-26T02:36:22.906Z,0.00
2022-08-26T02:37:24.331Z,0.00
2022-08-26T02:38:21.644Z,0.00
2022-08-26T02:39:22.373Z,0.00
2022-08-26T02:40:23.033Z,0.00
2022-08-26T02:41:25.859Z,0.00
2022-08-26T02:42:26.590Z,0.00
2022-08-26T02:43:31.288Z,0.00
2022-08-26T02:44:25.506Z,0.00
2022-08-26T02:45:24.582Z,0.00
2022-08-26T02:46:29.820Z,0.00
2022-08-26T02:47:25.183Z,0.00
2022-08-26T02:48:25.316Z,0.00
2022-08-26T02:49:25.478Z,0.00
2022-08-26T02:50:24.972Z,0.00
2022-08-26T02:51:27.170Z,0.00
2022-08-26T02:52:28.303Z,0.00
2022-08-26T02:53:25.822Z,0.00
2022-08-26T02:54:28.012Z,0.00
2022-08-26T02:55:26.399Z,0.00
2022-08-26T02:56:28.609Z,0.00
2022-08-26T02:57:30.764Z,0.00
2022-08-26T02:58:28.192Z,0.00
2022-08-26T02:59:29.566Z,0.00
2022-08-26T03:00:29.803Z,0.00
2022-08-26T03:01:30.268Z,0.00
2022-08-26T03:02:29.354Z,0.00
2022-08-26T03:03:28.746Z,0.00
2022-08-26T03:04:29.021Z,0.00
2022-08-26T03:05:31.200Z,0.00
2022-08-26T03:06:30.394Z,0.00
2022-08-26T03:07:31.386Z,0.00
2022-08-26T03:08:32.195Z,0.00
2022-08-26T03:09:32.398Z,0.00
2022-08-26T03:10:32.594Z,0.00
2022-08-26T03:11:33.313Z,0.00
2022-08-26T03:12:34.275Z,0.00
2022-08-26T03:13:31.605Z,0.00
2022-08-26T03:14:33.817Z,0.00
2022-08-26T03:15:32.503Z,0.00
2022-08-26T03:16:34.240Z,0.00
2022-08-26T03:17:35.849Z,0.00
2022-08-26T03:18:33.194Z,0.00
2022-08-26T03:19:35.372Z,0.00
2022-08-26T03:20:35.573Z,0.00
2022-08-26T03:21:35.726Z,0.00
2022-08-26T03:22:36.128Z,0.00
2022-08-26T03:23:34.410Z,0.00
2022-08-26T03:24:34.725Z,0.00
2022-08-26T03:25:35.028Z,0.00
2022-08-26T03:26:37.227Z,0.00
2022-08-26T03:27:36.681Z,0.00
2022-08-26T03:28:35.932Z,0.00
2022-08-26T03:29:36.159Z,0.00
2022-08-26T03:30:36.396Z,0.00
2022-08-26T03:31:38.646Z,0.00
2022-08-26T03:32:38.007Z,0.00
2022-08-26T03:33:37.386Z,0.00
2022-08-26T03:34:39.523Z,0.00
2022-08-26T03:35:37.922Z,0.00
2022-08-26T03:36:38.183Z,0.00
2022-08-26T03:37:41.403Z,0.00
2022-08-26T03:38:38.694Z,4.00
2022-08-26T03:39:38.921Z,4.00
2022-08-26T03:40:39.247Z,4.00
2022-08-26T03:41:41.434Z,0.00
2022-08-26T03:42:45.306Z,4.00
2022-08-26T03:43:41.853Z,4.00
2022-08-26T03:44:40.373Z,4.00
2022-08-26T03:45:40.765Z,4.00
2022-08-26T03:46:43.049Z,8.00
2022-08-26T03:47:45.125Z,8.00
2022-08-26T03:48:41.461Z,8.00
2022-08-26T03:49:43.786Z,8.00
2022-08-26T03:50:42.066Z,8.00
2022-08-26T03:51:44.275Z,12.00
2022-08-26T03:52:46.553Z,16.00
2022-08-26T03:53:44.762Z,16.00
2022-08-26T03:54:43.484Z,20.00
2022-08-26T03:55:43.531Z,24.00
2022-08-26T03:56:46.554Z,24.00
2022-08-26T03:57:45.689Z,32.00
2022-08-26T03:58:44.462Z,36.00
2022-08-26T03:59:46.645Z,44.00
2022-08-26T04:00:45.036Z,48.00
2022-08-26T04:01:45.337Z,52.00
2022-08-26T04:02:49.092Z,64.00
2022-08-26T04:03:45.751Z,76.00
2022-08-26T04:04:46.079Z,84.00
2022-08-26T04:05:46.433Z,96.00
2022-08-26T04:06:48.602Z,108.00
2022-08-26T04:07:48.584Z,120.00
2022-08-26T04:08:47.241Z,140.00
2022-08-26T04:09:47.460Z,152.00
2022-08-26T04:10:47.817Z,172.00
2022-08-26T04:11:51.451Z,188.00
2022-08-26T04:12:52.264Z,212.00
2022-08-26T04:13:48.708Z,232.00
2022-08-26T04:14:49.019Z,252.00
2022-08-26T04:15:49.288Z,280.00
2022-08-26T04:16:51.449Z,308.00
2022-08-26T04:17:51.844Z,336.00
2022-08-26T04:18:50.147Z,368.00
2022-08-26T04:19:52.342Z,400.00
2022-08-26T04:20:50.665Z,440.00
2022-08-26T04:21:52.851Z,476.00
2022-08-26T04:22:54.057Z,516.00
2022-08-26T04:23:53.263Z,556.00
2022-08-26T04:24:51.839Z,588.00
2022-08-26T04:25:51.893Z,624.00
2022-08-26T04:26:54.076Z,660.00
2022-08-26T04:27:54.246Z,704.00
2022-08-26T04:28:52.651Z,748.00
2022-08-26T04:29:55.327Z,796.00
2022-08-26T04:30:54.217Z,840.00
2022-08-26T04:31:57.487Z,884.00
2022-08-26T04:32:55.710Z,928.00
2022-08-26T04:33:55.900Z,972.00
2022-08-26T04:34:55.587Z,1024.00
2022-08-26T04:35:54.917Z,1076.00
2022-08-26T04:36:55.144Z,1132.00
2022-08-26T04:37:57.309Z,1192.00
2022-08-26T04:38:57.491Z,1252.00
2022-08-26T04:39:57.698Z,1312.00
2022-08-26T04:40:56.217Z,1380.00
2022-08-26T04:41:58.447Z,1444.00
2022-08-26T04:42:56.729Z,1516.00
2022-08-26T04:43:58.916Z,1584.00
2022-08-26T04:44:58.216Z,1652.00
2022-08-26T04:45:59.157Z,1712.00
2022-08-26T04:46:58.829Z,1768.00
2022-08-26T04:47:59.205Z,1824.00
2022-08-26T04:49:00.425Z,1884.00
2022-08-26T04:49:58.859Z,1952.00
2022-08-26T04:50:59.101Z,2028.00
2022-08-26T04:52:02.011Z,2108.00
2022-08-26T04:53:02.038Z,2180.00
2022-08-26T04:54:01.647Z,2248.00
2022-08-26T04:55:00.162Z,2308.00
2022-08-26T04:56:00.405Z,2376.00
2022-08-26T04:57:02.596Z,2464.00
2022-08-26T04:58:02.784Z,2556.00
2022-08-26T04:59:01.152Z,2660.00
2022-08-26T05:00:03.323Z,2744.00
2022-08-26T05:01:01.634Z,2852.00
2022-08-26T05:02:01.937Z,2980.00
2022-08-26T05:03:02.191Z,3120.00
2022-08-26T05:04:05.043Z,3260.00
2022-08-26T05:05:02.671Z,3396.00
2022-08-26T05:06:04.861Z,3524.00
2022-08-26T05:07:07.004Z,3628.00
2022-08-26T05:08:05.225Z,3684.00
2022-08-26T05:09:04.619Z,3796.00
2022-08-26T05:10:08.814Z,3940.00
2022-08-26T05:11:04.374Z,4100.00
2022-08-26T05:12:04.679Z,4292.00
2022-08-26T05:13:10.692Z,4456.00
2022-08-26T05:14:07.200Z,4576.00
2022-08-26T05:15:07.447Z,4688.00
2022-08-26T05:16:07.693Z,4780.00
2022-08-26T05:17:07.783Z,4860.00
2022-08-26T05:18:06.258Z,4956.00
2022-08-26T05:19:07.502Z,5060.00
2022-08-26T05:20:08.841Z,5120.00
2022-08-26T05:21:09.033Z,5196.00
2022-08-26T05:22:09.228Z,5288.00
2022-08-26T05:23:09.589Z,5416.00
2022-08-26T05:24:12.099Z,5552.00
2022-08-26T05:25:10.340Z,5640.00
2022-08-26T05:26:10.493Z,5744.00
2022-08-26T05:27:11.740Z,5944.00
2022-08-26T05:28:10.208Z,6128.00
2022-08-26T05:29:09.513Z,6224.00
2022-08-26T05:30:11.715Z,6328.00
2022-08-26T05:31:10.063Z,6612.00
2022-08-26T05:32:11.250Z,6904.00
2022-08-26T05:33:13.573Z,6964.00
2022-08-26T05:34:10.887Z,7092.00
2022-08-26T05:35:13.148Z,7124.00
2022-08-26T05:36:12.257Z,7252.00
2022-08-26T05:37:11.701Z,7516.00
2022-08-26T05:38:15.912Z,7660.00
2022-08-26T05:39:12.237Z,7812.00
2022-08-26T05:40:12.627Z,7772.00
2022-08-26T05:41:14.776Z,7912.00
2022-08-26T05:42:13.130Z,8056.00
2022-08-26T05:43:16.453Z,8076.00
2022-08-26T05:44:14.034Z,8132.00
2022-08-26T05:45:15.849Z,8300.00
2022-08-26T05:46:16.064Z,8696.00
2022-08-26T05:47:14.515Z,8968.00
2022-08-26T05:48:16.147Z,8852.00
2022-08-26T05:49:16.603Z,8536.00
2022-08-26T05:50:15.274Z,8892.00
2022-08-26T05:51:17.454Z,9444.00
2022-08-26T05:52:15.752Z,9404.00
2022-08-26T05:53:19.075Z,9448.00
2022-08-26T05:54:22.121Z,9340.00
2022-08-26T05:55:17.516Z,8964.00
2022-08-26T05:56:18.704Z,9172.00
2022-08-26T05:57:17.153Z,9608.00
2022-08-26T05:58:20.388Z,9708.00
2022-08-26T05:59:24.086Z,9608.00
2022-08-26T06:00:18.965Z,9828.00
2022-08-26T06:01:20.269Z,9760.00
2022-08-26T06:02:18.535Z,8968.00
2022-08-26T06:03:21.762Z,8668.00
2022-08-26T06:04:20.021Z,8936.00
2022-08-26T06:05:21.354Z,9304.00
2022-08-26T06:06:27.398Z,8988.00
2022-08-26T06:07:21.147Z,8988.00
2022-08-26T06:08:24.292Z,9088.00
2022-08-26T06:09:20.740Z,9280.00
2022-08-26T06:10:32.039Z,9932.00
2022-08-26T06:11:22.235Z,10316.00
2022-08-26T06:12:21.548Z,10260.00
2022-08-26T06:13:24.841Z,9892.00
2022-08-26T06:14:23.942Z,9964.00
2022-08-26T06:15:22.250Z,10188.00
2022-08-26T06:16:24.508Z,10248.00
2022-08-26T06:17:22.777Z,10652.00
2022-08-26T06:18:26.934Z,11248.00
2022-08-26T06:19:25.141Z,11232.00
2022-08-26T06:20:24.599Z,11388.00
2022-08-26T06:21:25.782Z,10976.00
2022-08-26T06:22:24.105Z,10824.00
2022-08-26T06:23:25.151Z,11020.00
2022-08-26T06:24:27.274Z,11524.00
2022-08-26T06:25:24.889Z,11684.00
2022-08-26T06:26:25.136Z,11388.00
2022-08-26T06:27:30.651Z,11408.00
2022-08-26T06:28:29.977Z,11496.00
2022-08-26T06:29:27.702Z,11152.00
2022-08-26T06:30:26.256Z,12048.00
2022-08-26T06:31:26.646Z,12268.00
2022-08-26T06:32:28.780Z,12124.00
2022-08-26T06:33:29.032Z,12348.00
2022-08-26T06:34:30.981Z,12748.00
2022-08-26T06:35:31.390Z,12744.00
2022-08-26T06:36:28.097Z,12124.00
2022-08-26T06:37:29.202Z,11828.00
2022-08-26T06:38:29.621Z,12860.00
2022-08-26T06:39:31.404Z,13232.00
2022-08-26T06:40:30.746Z,13632.00
2022-08-26T06:41:30.339Z,14392.00
2022-08-26T06:42:29.774Z,14608.00
2022-08-26T06:43:30.026Z,14388.00
2022-08-26T06:44:32.678Z,13748.00
2022-08-26T06:45:31.990Z,13496.00
2022-08-26T06:46:30.840Z,14380.00
2022-08-26T06:47:31.060Z,15224.00
2022-08-26T06:48:31.311Z,15076.00
2022-08-26T06:49:34.946Z,15136.00
2022-08-26T06:50:34.774Z,15884.00
2022-08-26T06:51:32.970Z,16928.00
2022-08-26T06:52:33.384Z,16928.00
2022-08-26T06:53:33.547Z,16132.00
2022-08-26T06:54:32.913Z,16016.00
2022-08-26T06:55:37.175Z,16832.00
2022-08-26T06:56:35.457Z,17824.00
2022-08-26T06:57:34.862Z,19072.00
2022-08-26T06:58:34.850Z,19360.00
2022-08-26T06:59:36.231Z,19008.00
2022-08-26T07:00:37.482Z,19648.00
2022-08-26T07:01:36.730Z,21984.00
2022-08-26T07:02:35.120Z,23520.00
2022-08-26T07:03:39.913Z,23136.00
2022-08-26T07:04:38.930Z,22528.00
2022-08-26T07:05:36.738Z,20096.00
2022-08-26T07:06:37.157Z,17920.00
2022-08-26T07:07:37.316Z,16992.00
2022-08-26T07:08:37.474Z,16384.00
2022-08-26T07:09:40.839Z,16032.00
2022-08-26T07:10:38.315Z,14608.00
2022-08-26T07:11:37.620Z,13676.00
2022-08-26T07:12:39.821Z,13608.00
2022-08-26T07:13:38.200Z,14032.00
2022-08-26T07:14:38.456Z,14864.00
2022-08-26T07:15:39.642Z,15328.00
2022-08-26T07:16:38.997Z,15496.00
2022-08-26T07:17:40.178Z,15584.00
2022-08-26T07:18:41.371Z,15636.00
2022-08-26T07:19:39.902Z,16252.00
2022-08-26T07:20:44.074Z,15648.00
2022-08-26T07:21:42.299Z,16476.00
2022-08-26T07:22:42.557Z,16616.00
2022-08-26T07:23:42.652Z,16772.00
2022-08-26T07:24:43.139Z,16744.00
2022-08-26T07:25:42.510Z,16632.00
2022-08-26T07:26:42.933Z,16772.00
2022-08-26T07:27:42.926Z,16900.00
2022-08-26T07:28:42.468Z,17380.00
2022-08-26T07:29:43.653Z,17288.00
2022-08-26T07:30:46.899Z,17460.00
2022-08-26T07:31:43.230Z,17720.00
2022-08-26T07:32:45.376Z,18368.00
2022-08-26T07:33:45.558Z,18784.00
2022-08-26T07:34:45.726Z,19520.00
2022-08-26T07:35:47.177Z,21632.00
2022-08-26T07:36:44.640Z,24672.00
2022-08-26T07:37:46.829Z,24896.00
2022-08-26T07:38:47.028Z,25504.00
2022-08-26T07:39:45.439Z,26240.00
2022-08-26T07:40:48.743Z,28000.00
2022-08-26T07:41:45.990Z,29952.00
2022-08-26T07:42:48.224Z,32256.00
2022-08-26T07:43:46.667Z,32672.00
2022-08-26T07:44:46.941Z,32544.00
2022-08-26T07:45:51.162Z,31808.00
2022-08-26T07:46:52.397Z,32960.00
2022-08-26T07:47:48.742Z,33856.00
2022-08-26T07:48:48.071Z,35040.00
2022-08-26T07:49:52.712Z,35488.00
2022-08-26T07:50:50.856Z,35936.00
2022-08-26T07:51:50.631Z,36448.00
2022-08-26T07:52:49.193Z,36896.00
2022-08-26T07:53:52.408Z,37056.00
2022-08-26T07:54:49.662Z,35360.00
2022-08-26T07:55:53.903Z,35808.00
2022-08-26T07:56:52.124Z,36704.00
2022-08-26T07:57:50.539Z,38720.00
2022-08-26T07:58:51.355Z,38496.00
2022-08-26T07:59:51.025Z,39008.00
2022-08-26T08:00:55.209Z,39168.00
2022-08-26T08:01:53.485Z,39456.00
2022-08-26T08:02:51.791Z,40960.00
2022-08-26T08:03:52.083Z,41248.00
2022-08-26T08:04:54.271Z,39936.00
2022-08-26T08:05:55.566Z,40576.00
2022-08-26T08:06:52.795Z,42432.00
2022-08-26T08:08:26.648Z,40960.00
2022-08-26T08:08:54.329Z,39616.00
2022-08-26T08:09:55.507Z,39264.00
2022-08-26T08:10:56.962Z,40416.00
2022-08-26T08:11:54.168Z,37952.00
2022-08-26T08:12:56.389Z,36896.00
2022-08-26T08:13:56.311Z,37888.00
2022-08-26T08:14:54.927Z,36928.00
2022-08-26T08:15:59.126Z,36992.00
2022-08-26T08:16:55.538Z,40128.00
2022-08-26T08:18:00.209Z,44960.00
2022-08-26T08:18:56.020Z,45216.00
2022-08-26T08:19:56.262Z,44288.00
2022-08-26T08:21:21.177Z,44448.00
2022-08-26T08:21:57.839Z,45792.00
2022-08-26T08:22:59.035Z,46688.00
2022-08-26T08:23:57.362Z,45824.00
2022-08-26T08:24:57.606Z,45440.00
2022-08-26T08:26:01.783Z,45536.00
2022-08-26T08:26:58.245Z,47136.00
2022-08-26T08:28:00.434Z,47072.00
2022-08-26T08:29:00.626Z,47744.00
2022-08-26T08:29:59.054Z,48288.00
2022-08-26T08:30:59.374Z,49120.00
2022-08-26T08:32:00.009Z,51200.00
2022-08-26T08:32:59.966Z,52512.00
2022-08-26T08:34:02.156Z,52384.00
2022-08-26T08:35:00.485Z,50592.00
2022-08-26T08:36:00.737Z,51808.00
2022-08-26T08:37:00.990Z,53920.00
2022-08-26T08:38:01.371Z,52224.00
2022-08-26T08:39:01.565Z,52256.00
2022-08-26T08:40:03.831Z,52384.00
2022-08-26T08:41:03.451Z,50528.00
2022-08-26T08:42:02.419Z,47840.00
2022-08-26T08:43:02.733Z,48448.00
2022-08-26T08:44:02.986Z,49184.00
2022-08-26T08:45:05.167Z,48640.00
2022-08-26T08:46:03.545Z,49824.00
2022-08-26T08:47:05.671Z,49856.00
2022-08-26T08:48:04.002Z,50336.00
2022-08-26T08:49:04.248Z,50464.00
2022-08-26T08:50:04.495Z,52896.00
2022-08-26T08:51:06.650Z,51840.00
2022-08-26T08:52:06.841Z,53632.00
2022-08-26T08:53:08.868Z,52448.00
2022-08-26T08:54:05.594Z,54144.00
2022-08-26T08:55:11.027Z,54848.00
2022-08-26T08:56:08.634Z,55168.00
2022-08-26T08:57:08.369Z,54336.00
2022-08-26T08:58:08.107Z,52064.00
2022-08-26T08:59:08.871Z,49216.00
2022-08-26T09:00:08.044Z,48064.00
2022-08-26T09:01:09.762Z,48928.00
2022-08-26T09:02:08.649Z,51296.00
2022-08-26T09:03:09.027Z,51008.00
2022-08-26T09:04:09.447Z,50624.00
2022-08-26T09:05:09.607Z,51808.00
2022-08-26T09:06:10.966Z,52320.00
2022-08-26T09:07:11.139Z,53088.00
2022-08-26T09:08:11.242Z,52992.00
2022-08-26T09:09:09.765Z,54368.00
2022-08-26T09:10:10.022Z,56832.00
2022-08-26T09:11:12.201Z,58624.00
2022-08-26T09:12:10.516Z,58752.00
2022-08-26T09:13:13.823Z,59456.00
2022-08-26T09:14:11.047Z,58848.00
2022-08-26T09:15:11.362Z,58048.00
2022-08-26T09:16:13.487Z,58592.00
2022-08-26T09:17:11.945Z,59072.00
2022-08-26T09:18:12.179Z,60128.00
2022-08-26T09:19:14.366Z,58496.00
2022-08-26T09:20:13.542Z,56704.00
2022-08-26T09:21:14.899Z,54368.00
2022-08-26T09:22:15.138Z,53984.00
2022-08-26T09:23:13.555Z,55680.00
2022-08-26T09:24:14.831Z,57664.00
2022-08-26T09:25:14.850Z,59872.00
2022-08-26T09:26:16.286Z,60928.00
2022-08-26T09:27:16.424Z,60544.00
2022-08-26T09:28:15.845Z,60352.00
2022-08-26T09:29:16.088Z,59296.00
2022-08-26T09:30:16.971Z,56160.00
2022-08-26T09:31:17.698Z,53600.00
2022-08-26T09:32:19.314Z,48288.00
2022-08-26T09:33:16.201Z,34720.00
2022-08-26T09:34:18.333Z,27264.00
2022-08-26T09:35:17.731Z,32736.00
2022-08-26T09:36:17.059Z,38464.00
2022-08-26T09:37:17.309Z,36000.00
2022-08-26T09:38:19.529Z,34304.00
2022-08-26T09:39:18.759Z,51488.00
2022-08-26T09:40:21.123Z,52832.00
2022-08-26T09:41:20.141Z,52800.00
2022-08-26T09:42:20.830Z,58560.00
2022-08-26T09:43:22.221Z,58176.00
2022-08-26T09:44:19.467Z,60288.00
2022-08-26T09:45:23.718Z,63808.00
2022-08-26T09:46:20.145Z,63680.00
2022-08-26T09:47:22.261Z,54848.00
2022-08-26T09:48:20.639Z,62656.00
2022-08-26T09:49:20.877Z,59520.00
2022-08-26T09:50:22.668Z,59968.00
2022-08-26T09:51:22.472Z,61664.00
2022-08-26T09:52:23.733Z,63008.00
2022-08-26T09:53:28.539Z,66944.00
2022-08-26T09:54:23.303Z,64992.00
2022-08-26T09:55:24.520Z,63744.00
2022-08-26T09:56:22.897Z,63648.00
2022-08-26T09:57:25.045Z,68896.00
2022-08-26T09:58:23.364Z,70048.00
2022-08-26T09:59:25.526Z,70144.00
2022-08-26T10:00:24.801Z,73440.00
2022-08-26T10:01:24.331Z,70496.00
2022-08-26T10:02:26.438Z,71008.00
2022-08-26T10:03:26.613Z,72192.00
2022-08-26T10:04:25.282Z,69504.00
2022-08-26T10:05:26.373Z,68960.00
2022-08-26T10:06:25.689Z,63776.00
2022-08-26T10:07:27.910Z,62528.00
2022-08-26T10:08:28.122Z,67456.00
2022-08-26T10:09:26.554Z,63488.00
2022-08-26T10:10:27.682Z,66880.00
2022-08-26T10:11:27.041Z,66304.00
2022-08-26T10:12:30.691Z,64384.00
2022-08-26T10:13:29.574Z,64000.00
2022-08-26T10:14:29.606Z,38976.00
2022-08-26T10:15:28.993Z,48096.00
2022-08-26T10:16:30.402Z,56832.00
2022-08-26T10:17:30.864Z,76544.00
2022-08-26T10:18:33.766Z,80128.00
2022-08-26T10:19:56.038Z,78336.00
2022-08-26T10:20:31.333Z,79296.00
2022-08-26T10:21:31.679Z,78208.00
2022-08-26T10:22:29.999Z,77504.00
2022-08-26T10:23:30.285Z,75904.00
2022-08-26T10:24:32.437Z,41792.00
2022-08-26T10:25:31.619Z,40960.00
2022-08-26T10:26:32.988Z,64608.00
2022-08-26T10:27:33.167Z,57920.00
2022-08-26T10:28:33.356Z,68704.00
2022-08-26T10:29:32.772Z,69344.00
2022-08-26T10:30:33.192Z,44000.00
2022-08-26T10:31:40.100Z,43328.00
2022-08-26T10:32:35.698Z,46816.00
2022-08-26T10:33:35.894Z,87232.00
2022-08-26T10:34:34.338Z,86368.00
2022-08-26T10:35:33.650Z,56192.00
2022-08-26T10:36:39.340Z,36576.00
2022-08-26T10:37:35.141Z,33792.00
2022-08-26T10:38:36.330Z,32960.00
2022-08-26T10:39:35.502Z,33088.00
2022-08-26T10:40:37.021Z,32800.00
2022-08-26T10:41:35.305Z,33088.00
2022-08-26T10:42:37.774Z,32896.00
2022-08-26T10:43:37.711Z,36160.00
2022-08-26T10:44:39.013Z,56480.00
2022-08-26T10:45:36.359Z,64384.00
2022-08-26T10:46:36.561Z,43872.00
2022-08-26T10:47:36.845Z,66976.00
2022-08-26T10:48:37.099Z,56896.00
2022-08-26T10:49:41.265Z,52192.00
2022-08-26T10:50:37.619Z,50144.00
2022-08-26T10:51:37.861Z,65440.00
2022-08-26T10:52:38.115Z,89664.00
2022-08-26T10:53:44.358Z,79552.00
2022-08-26T10:54:39.599Z,79136.00
2022-08-26T10:55:38.893Z,68992.00
2022-08-26T10:56:39.145Z,76640.00
2022-08-26T10:57:40.327Z,67648.00
2022-08-26T10:58:39.668Z,72064.00
2022-08-26T10:59:42.948Z,69056.00
2022-08-26T11:00:40.202Z,63296.00
2022-08-26T11:01:41.540Z,69792.00
2022-08-26T11:02:41.634Z,63232.00
2022-08-26T11:03:42.115Z,73440.00
2022-08-26T11:04:48.488Z,68384.00
2022-08-26T11:05:41.705Z,77280.00
2022-08-26T11:06:41.990Z,75744.00
2022-08-26T11:07:42.198Z,71808.00
2022-08-26T11:08:42.452Z,81120.00
2022-08-26T11:09:46.605Z,66432.00
2022-08-26T11:10:44.860Z,76096.00
2022-08-26T11:11:43.171Z,69792.00
2022-08-26T11:12:49.390Z,87168.00
2022-08-26T11:13:44.683Z,85696.00
2022-08-26T11:14:58.548Z,83104.00
2022-08-26T11:15:46.018Z,91840.00
2022-08-26T11:16:45.516Z,77824.00
2022-08-26T11:17:45.582Z,87296.00
2022-08-26T11:18:46.932Z,71776.00
2022-08-26T11:20:00.283Z,83872.00
2022-08-26T11:20:47.220Z,84384.00
2022-08-26T11:21:47.682Z,76896.00
2022-08-26T11:22:47.902Z,85504.00
2022-08-26T11:23:50.502Z,77344.00
2022-08-26T11:24:48.470Z,95392.00
2022-08-26T11:25:47.875Z,32704.00
2022-08-26T11:26:56.222Z,24512.00
2022-08-26T11:27:48.568Z,22688.00
2022-08-26T11:28:49.767Z,22432.00
2022-08-26T11:29:48.206Z,21440.00
2022-08-26T11:30:48.459Z,20096.00
2022-08-26T11:31:51.736Z,19552.00
2022-08-26T11:32:51.930Z,19328.00
2022-08-26T11:33:49.267Z,19264.00
2022-08-26T11:34:51.448Z,19424.00
2022-08-26T11:35:50.768Z,19808.00
2022-08-26T11:36:50.914Z,20224.00
2022-08-26T11:37:51.332Z,20672.00
2022-08-26T11:38:54.033Z,21120.00
2022-08-26T11:39:55.560Z,21440.00
2022-08-26T11:40:52.952Z,21568.00
2022-08-26T11:41:53.625Z,21472.00
2022-08-26T11:42:51.978Z,21376.00
2022-08-26T11:43:53.058Z,21248.00
2022-08-26T11:44:55.550Z,21088.00
2022-08-26T11:45:54.609Z,20928.00
2022-08-26T11:46:54.820Z,20672.00
2022-08-26T11:47:54.980Z,20416.00
2022-08-26T11:48:56.268Z,20224.00
2022-08-26T11:49:55.478Z,20192.00
2022-08-26T11:50:55.165Z,20384.00
2022-08-26T11:51:56.385Z,20320.00
2022-08-26T11:52:56.586Z,20384.00
2022-08-26T11:53:57.988Z,20320.00
2022-08-26T11:54:57.550Z,20352.00
2022-08-26T11:55:55.724Z,20448.00
2022-08-26T11:56:57.919Z,20320.00
2022-08-26T11:57:56.358Z,20192.00
2022-08-26T11:58:57.979Z,20000.00
2022-08-26T11:59:58.678Z,19936.00
2022-08-26T12:00:57.146Z,19968.00
2022-08-26T12:01:59.310Z,20000.00
2022-08-26T12:02:57.631Z,20096.00
2022-08-26T12:04:01.887Z,20128.00
2022-08-26T12:05:00.056Z,20096.00
2022-08-26T12:05:58.448Z,19968.00
2022-08-26T12:07:00.646Z,19776.00
2022-08-26T12:07:58.959Z,19584.00
2022-08-26T12:09:03.143Z,19456.00
2022-08-26T12:10:02.099Z,19360.00
2022-08-26T12:11:01.551Z,19424.00
2022-08-26T12:12:00.041Z,19552.00
2022-08-26T12:13:02.279Z,19808.00
2022-08-26T12:14:01.441Z,19680.00
2022-08-26T12:15:04.801Z,19264.00
2022-08-26T12:16:01.234Z,18720.00
2022-08-26T12:17:03.334Z,18240.00
2022-08-26T12:18:01.678Z,17984.00
2022-08-26T12:19:01.914Z,17952.00
2022-08-26T12:20:03.182Z,18048.00
2022-08-26T12:21:05.900Z,18400.00